Time;durP1;ratioP1;P1;durP2;ratioP2;P2;SDS_P1;SDS_P2;PMS_P1;PMS_P2;Temp;Humidity;BMP_temperature;BMP_pressure;BME280_temperature;BME280_humidity;BME280_pressure;Samples;Min_cycle;Max_cycle;Signal;HPM_P1;HPM_P2
2023/04/07 00:02:09;;;;;;;11.37;10.20;;;3.70;56.10;;;;;;6305504;28;20229;-75
2023/04/07 00:05:12;;;;;;;11.87;10.73;;;3.70;55.90;;;;;;6311661;28;20303;-76
2023/04/07 00:08:15;;;;;;;11.20;10.37;;;3.70;55.80;;;;;;6317916;28;20281;-75
2023/04/07 00:11:20;;;;;;;11.67;10.33;;;3.70;55.80;;;;;;6317799;28;20251;-76
2023/04/07 00:14:23;;;;;;;11.33;10.47;;;3.70;55.70;;;;;;6312955;28;20254;-76
2023/04/07 00:17:26;;;;;;;13.23;10.97;;;3.80;55.80;;;;;;6317012;28;20249;-78
2023/04/07 00:20:29;;;;;;;11.87;10.70;;;3.70;56.00;;;;;;6317855;28;20225;-77
2023/04/07 00:23:32;;;;;;;10.53;9.63;;;3.70;55.90;;;;;;6311209;28;20311;-76
2023/04/07 00:26:37;;;;;;;11.50;10.40;;;3.70;55.90;;;;;;6309311;28;20280;-78
2023/04/07 00:29:42;;;;;;;11.83;10.30;;;3.70;56.00;;;;;;6317107;28;20236;-78
2023/04/07 00:32:45;;;;;;;11.77;10.27;;;3.70;55.90;;;;;;6321075;28;20300;-78
2023/04/07 00:35:48;;;;;;;9.83;8.93;;;3.80;55.50;;;;;;6322173;28;20548;-77
2023/04/07 00:38:51;;;;;;;10.57;9.50;;;3.70;55.70;;;;;;6321573;28;20225;-81
2023/04/07 00:41:56;;;;;;;10.13;9.23;;;3.70;55.60;;;;;;6321740;28;20305;-77
2023/04/07 00:45:00;;;;;;;9.63;8.73;;;3.70;55.50;;;;;;6322172;28;20213;-76
2023/04/07 00:48:03;;;;;;;9.90;9.07;;;3.70;55.00;;;;;;6318839;28;20221;-78
2023/04/07 00:51:07;;;;;;;9.97;9.07;;;3.80;54.80;;;;;;6321367;28;20264;-77
2023/04/07 00:54:11;;;;;;;9.97;8.97;;;3.80;54.80;;;;;;6321166;28;20241;-78
2023/04/07 00:57:15;;;;;;;9.60;8.80;;;3.90;54.50;;;;;;6302482;28;20279;-82
2023/04/07 01:00:18;;;;;;;9.83;8.73;;;3.90;54.10;;;;;;6288825;28;20245;-82
2023/04/07 01:03:30;;;;;;;10.63;9.10;;;3.90;53.40;;;;;;6286978;28;20240;-84
2023/04/07 01:06:38;;;;;;;9.97;8.97;;;4.00;53.40;;;;;;6278911;28;20296;-81
2023/04/07 01:09:48;;;;;;;8.97;8.20;;;3.90;53.30;;;;;;6289863;28;20244;-83
2023/04/07 01:13:02;;;;;;;9.00;8.30;;;4.00;53.30;;;;;;6289603;28;20324;-83
2023/04/07 01:16:11;;;;;;;9.00;8.30;;;3.90;53.60;;;;;;6285268;28;20774;-78
2023/04/07 01:19:25;;;;;;;9.20;7.97;;;3.90;53.80;;;;;;6310176;28;20237;-77
2023/04/07 01:22:34;;;;;;;9.73;8.83;;;3.80;54.00;;;;;;6319755;28;20235;-77
2023/04/07 01:26:10;;;;;;;9.23;8.40;;;3.80;54.00;;;;;;6311943;28;20280;-76
2023/04/07 01:29:39;;;;;;;8.43;7.77;;;3.70;54.00;;;;;;6267464;28;20232;-77
2023/04/07 01:32:45;;;;;;;7.80;7.30;;;3.70;54.00;;;;;;6310108;28;20214;-76
2023/04/07 01:35:50;;;;;;;9.80;8.90;;;3.70;54.00;;;;;;6318171;28;20230;-77
2023/04/07 01:38:54;;;;;;;9.13;8.43;;;3.70;54.20;;;;;;6294866;28;20382;-82
2023/04/07 01:41:58;;;;;;;9.03;8.27;;;3.60;54.40;;;;;;6288394;28;20241;-81
2023/04/07 01:45:03;;;;;;;9.17;8.20;;;3.60;54.50;;;;;;6287626;28;20729;-82
2023/04/07 01:48:08;;;;;;;8.97;8.33;;;3.60;54.40;;;;;;6287611;28;20312;-81
2023/04/07 01:51:16;;;;;;;8.97;8.17;;;3.60;54.50;;;;;;6280369;28;20240;-82
2023/04/07 01:54:20;;;;;;;8.50;7.90;;;3.50;54.50;;;;;;6287897;28;20225;-82
2023/04/07 01:57:23;;;;;;;9.37;8.50;;;3.50;54.60;;;;;;6288518;28;20422;-82
2023/04/07 02:00:28;;;;;;;8.83;8.03;;;3.50;54.70;;;;;;6281857;28;20225;-84
2023/04/07 02:03:36;;;;;;;9.67;8.67;;;3.50;54.80;;;;;;6287897;28;20486;-83
2023/04/07 02:06:45;;;;;;;10.10;9.10;;;3.50;54.90;;;;;;6285163;28;20233;-82
2023/04/07 02:09:51;;;;;;;10.30;9.30;;;3.50;54.80;;;;;;6287468;28;20632;-81
2023/04/07 02:12:55;;;;;;;9.43;8.53;;;3.50;54.60;;;;;;6286925;28;20710;-81
2023/04/07 02:16:01;;;;;;;9.70;9.00;;;3.50;54.70;;;;;;6285932;28;20233;-83
2023/04/07 02:19:05;;;;;;;9.50;8.40;;;3.50;54.90;;;;;;6286168;28;20237;-83
2023/04/07 02:22:09;;;;;;;9.10;8.20;;;3.50;54.90;;;;;;6278230;28;20240;-82
2023/04/07 02:25:26;;;;;;;10.40;8.50;;;3.50;55.00;;;;;;6287052;28;20225;-79
2023/04/07 02:28:29;;;;;;;9.10;8.40;;;3.40;55.10;;;;;;6285101;28;20389;-82
2023/04/07 02:31:33;;;;;;;10.07;9.10;;;3.30;55.20;;;;;;6288433;28;20240;-81
2023/04/07 02:34:36;;;;;;;9.17;8.40;;;3.30;55.30;;;;;;6286694;28;20229;-81
2023/04/07 02:37:40;;;;;;;8.83;8.13;;;3.30;55.40;;;;;;6282166;28;20386;-78
2023/04/07 02:40:43;;;;;;;8.63;8.03;;;3.30;55.40;;;;;;6287932;28;20463;-80
2023/04/07 02:43:49;;;;;;;8.27;7.77;;;3.30;55.50;;;;;;6288107;28;20844;-81
2023/04/07 02:46:53;;;;;;;8.93;8.33;;;3.20;55.50;;;;;;6290067;28;20240;-81
2023/04/07 02:49:56;;;;;;;8.00;7.53;;;3.20;55.70;;;;;;6289162;28;20234;-81
2023/04/07 02:53:00;;;;;;;9.20;8.40;;;3.30;55.80;;;;;;6284686;28;20260;-81
2023/04/07 02:56:03;;;;;;;9.70;8.90;;;3.20;55.80;;;;;;6285948;28;20728;-83
2023/04/07 02:59:06;;;;;;;8.60;7.93;;;3.20;56.00;;;;;;6285556;28;20582;-82
2023/04/07 03:02:11;;;;;;;8.27;7.67;;;3.20;56.00;;;;;;6282551;28;20578;-83
2023/04/07 03:05:14;;;;;;;9.30;8.50;;;3.20;56.10;;;;;;6286601;28;20237;-80
2023/04/07 03:08:17;;;;;;;9.10;8.13;;;3.10;56.20;;;;;;6286011;28;20243;-83
2023/04/07 03:11:20;;;;;;;10.17;8.80;;;3.10;56.30;;;;;;6291657;28;20237;-83
2023/04/07 03:14:24;;;;;;;8.57;7.90;;;3.10;56.20;;;;;;6285395;28;20245;-82
2023/04/07 03:17:28;;;;;;;10.27;9.20;;;3.10;56.20;;;;;;6283872;28;20249;-80
2023/04/07 03:20:31;;;;;;;8.53;7.93;;;3.10;56.40;;;;;;6285032;28;20241;-79
2023/04/07 03:23:35;;;;;;;9.17;8.27;;;3.10;56.40;;;;;;6285179;28;20728;-81
2023/04/07 03:26:38;;;;;;;10.17;9.27;;;3.10;56.70;;;;;;6277860;28;20226;-82
2023/04/07 03:29:41;;;;;;;8.80;8.10;;;3.10;56.60;;;;;;6277806;28;20233;-81
2023/04/07 03:32:45;;;;;;;10.73;9.67;;;3.10;56.70;;;;;;6271220;28;20407;-82
2023/04/07 03:35:48;;;;;;;9.03;8.37;;;3.10;56.80;;;;;;6284442;28;20584;-80
2023/04/07 03:38:51;;;;;;;10.63;9.43;;;3.10;56.80;;;;;;6283767;28;20240;-81
2023/04/07 03:41:55;;;;;;;9.53;8.53;;;3.10;56.80;;;;;;6278422;28;20394;-83
2023/04/07 03:44:58;;;;;;;9.53;8.67;;;3.10;56.70;;;;;;6285601;28;20233;-83
2023/04/07 03:48:02;;;;;;;8.77;8.17;;;3.20;56.60;;;;;;6284462;28;20298;-83
2023/04/07 03:51:05;;;;;;;9.10;8.30;;;3.30;56.50;;;;;;6280615;28;20320;-82
2023/04/07 03:54:08;;;;;;;9.70;8.77;;;3.30;56.60;;;;;;6285089;28;20312;-79
2023/04/07 03:57:12;;;;;;;9.57;8.83;;;3.20;56.80;;;;;;6284963;28;20233;-82
2023/04/07 04:00:15;;;;;;;10.27;9.43;;;3.30;56.90;;;;;;6284757;28;20459;-79
2023/04/07 04:03:19;;;;;;;9.63;8.73;;;3.30;56.90;;;;;;6285162;28;20735;-79
2023/04/07 04:06:23;;;;;;;9.93;9.03;;;3.30;57.00;;;;;;6282415;28;20229;-78
2023/04/07 04:09:26;;;;;;;10.43;9.63;;;3.30;57.10;;;;;;6286671;28;20299;-78
2023/04/07 04:12:29;;;;;;;9.50;8.67;;;3.30;57.00;;;;;;6288736;28;20247;-80
2023/04/07 04:15:32;;;;;;;9.77;8.90;;;3.30;57.00;;;;;;6283610;28;20237;-77
2023/04/07 04:18:36;;;;;;;9.47;8.77;;;3.20;57.10;;;;;;6284856;28;20237;-78
2023/04/07 04:21:40;;;;;;;10.37;9.57;;;3.20;57.20;;;;;;6277103;28;20240;-77
2023/04/07 04:24:43;;;;;;;9.53;8.83;;;3.30;57.30;;;;;;6281700;28;20312;-79
2023/04/07 04:27:46;;;;;;;10.30;9.40;;;3.20;57.30;;;;;;6288974;28;20463;-77
2023/04/07 04:30:49;;;;;;;10.43;9.63;;;3.20;57.40;;;;;;6287303;28;20394;-80
2023/04/07 04:33:53;;;;;;;9.30;8.70;;;3.30;57.30;;;;;;6291771;28;20264;-79
2023/04/07 04:36:57;;;;;;;10.30;9.40;;;3.30;57.30;;;;;;6289449;28;20367;-80
2023/04/07 04:40:00;;;;;;;10.30;9.33;;;3.20;57.20;;;;;;6288528;28;20380;-81
2023/04/07 04:43:05;;;;;;;10.57;9.70;;;3.20;57.30;;;;;;6288621;28;20303;-80
2023/04/07 04:46:08;;;;;;;10.17;9.37;;;3.20;57.40;;;;;;6288110;28;20237;-78
2023/04/07 04:49:14;;;;;;;9.90;9.00;;;3.20;57.30;;;;;;6288642;28;20226;-79
2023/04/07 04:52:17;;;;;;;10.37;9.40;;;3.20;57.40;;;;;;6288619;28;20862;-79
2023/04/07 04:55:20;;;;;;;9.40;8.67;;;3.20;57.50;;;;;;6288552;28;20312;-80
2023/04/07 04:58:23;;;;;;;11.27;10.27;;;3.20;57.50;;;;;;6288384;28;20717;-79
2023/04/07 05:01:26;;;;;;;9.53;8.80;;;3.20;57.60;;;;;;6284621;28;20245;-80
2023/04/07 05:04:31;;;;;;;11.37;10.47;;;3.30;57.70;;;;;;6288388;28;20387;-79
2023/04/07 05:07:36;;;;;;;11.63;10.53;;;3.30;57.90;;;;;;6287190;28;20631;-78
2023/04/07 05:10:41;;;;;;;10.90;10.03;;;3.30;57.80;;;;;;6288303;28;20334;-78
2023/04/07 05:13:44;;;;;;;9.97;9.13;;;3.30;57.90;;;;;;6277442;28;20743;-81
2023/04/07 05:16:47;;;;;;;10.60;9.80;;;3.30;57.70;;;;;;6287106;28;20241;-77
2023/04/07 05:19:51;;;;;;;12.57;10.33;;;3.40;57.60;;;;;;6287699;28;20295;-79
2023/04/07 05:22:55;;;;;;;10.93;9.93;;;3.40;57.70;;;;;;6287513;28;20237;-80
2023/04/07 05:25:58;;;;;;;11.10;10.07;;;3.50;57.70;;;;;;6283252;28;20233;-79
2023/04/07 05:29:01;;;;;;;11.03;10.10;;;3.50;57.80;;;;;;6287576;28;20432;-80
2023/04/07 05:32:06;;;;;;;10.87;9.97;;;3.50;57.80;;;;;;6285917;28;20234;-80
2023/04/07 05:35:11;;;;;;;11.17;10.07;;;3.50;57.90;;;;;;6287544;28;20244;-78
2023/04/07 05:38:15;;;;;;;12.10;10.97;;;3.60;57.80;;;;;;6279557;28;20390;-77
2023/04/07 05:41:18;;;;;;;11.43;10.30;;;3.60;57.70;;;;;;6282634;28;20234;-79
2023/04/07 05:44:21;;;;;;;11.47;10.40;;;3.60;58.00;;;;;;6279507;28;20615;-78
2023/04/07 05:47:24;;;;;;;11.97;10.87;;;3.70;57.90;;;;;;6286458;28;20332;-79
2023/04/07 05:50:29;;;;;;;11.67;10.80;;;3.70;58.20;;;;;;6285312;28;20237;-80
2023/04/07 05:53:32;;;;;;;12.33;11.27;;;3.80;58.00;;;;;;6284769;28;20238;-80
2023/04/07 05:56:35;;;;;;;13.30;11.97;;;3.90;57.90;;;;;;6287389;28;20779;-78
2023/04/07 05:59:38;;;;;;;11.77;10.60;;;3.90;57.90;;;;;;6285698;28;20320;-80
2023/04/07 06:02:41;;;;;;;13.07;11.63;;;4.10;57.50;;;;;;6283601;28;20305;-80
2023/04/07 06:05:47;;;;;;;13.30;11.90;;;4.10;57.60;;;;;;6279671;28;20241;-78
2023/04/07 06:08:50;;;;;;;13.37;12.17;;;4.10;57.70;;;;;;6281324;28;20236;-80
2023/04/07 06:11:53;;;;;;;13.33;12.03;;;4.10;57.60;;;;;;6286079;28;20244;-80
2023/04/07 06:14:56;;;;;;;13.13;11.77;;;4.20;57.80;;;;;;6286838;28;20232;-78
2023/04/07 06:18:00;;;;;;;12.03;11.00;;;4.20;58.00;;;;;;6284586;28;20245;-80
2023/04/07 06:21:04;;;;;;;12.93;11.70;;;4.30;57.80;;;;;;6284090;28;20249;-79
2023/04/07 06:24:08;;;;;;;12.47;11.13;;;4.40;57.60;;;;;;6285808;28;20233;-80
2023/04/07 06:27:11;;;;;;;12.67;11.47;;;4.40;57.40;;;;;;6286169;28;20237;-75
2023/04/07 06:30:15;;;;;;;12.80;11.60;;;4.50;57.40;;;;;;6281198;28;20257;-79
2023/04/07 06:33:22;;;;;;;12.53;11.33;;;4.50;57.10;;;;;;6284720;28;20243;-78
2023/04/07 06:36:27;;;;;;;12.47;11.27;;;4.60;57.10;;;;;;6284687;28;20253;-79
2023/04/07 06:39:31;;;;;;;12.47;11.23;;;4.50;57.20;;;;;;6284966;28;20754;-79
2023/04/07 06:42:34;;;;;;;12.00;10.93;;;4.50;57.40;;;;;;6285450;28;20729;-77
2023/04/07 06:45:37;;;;;;;12.50;11.20;;;4.50;57.50;;;;;;6285389;28;20233;-79
2023/04/07 06:48:40;;;;;;;12.43;11.30;;;4.60;57.60;;;;;;6280968;28;20240;-77
2023/04/07 06:51:44;;;;;;;12.27;11.07;;;4.70;57.50;;;;;;6285248;28;20244;-78
2023/04/07 06:54:47;;;;;;;11.80;10.57;;;4.70;57.90;;;;;;6286377;28;20268;-78
2023/04/07 06:57:51;;;;;;;13.43;12.23;;;4.70;57.70;;;;;;6281186;28;20656;-79
2023/04/07 07:00:54;;;;;;;11.83;10.63;;;4.80;57.70;;;;;;6282489;28;20301;-78
2023/04/07 07:03:57;;;;;;;12.60;11.33;;;4.80;57.80;;;;;;6285951;28;20312;-80
2023/04/07 07:07:02;;;;;;;13.10;11.77;;;4.90;57.90;;;;;;6280237;28;20248;-78
2023/04/07 07:10:06;;;;;;;12.70;11.43;;;5.00;57.80;;;;;;6285731;28;20738;-77
2023/04/07 07:13:10;;;;;;;12.30;11.20;;;5.10;57.70;;;;;;6286012;28;20316;-80
2023/04/07 07:16:13;;;;;;;11.93;10.83;;;5.10;58.00;;;;;;6281991;28;20237;-79
2023/04/07 07:19:16;;;;;;;11.90;10.70;;;5.30;58.10;;;;;;6282692;28;20381;-79
2023/04/07 07:22:20;;;;;;;12.20;10.93;;;5.30;58.00;;;;;;6277118;28;20341;-79
2023/04/07 07:25:25;;;;;;;11.23;10.07;;;5.50;57.70;;;;;;6285793;28;20237;-75
2023/04/07 07:28:28;;;;;;;11.00;10.20;;;5.60;56.80;;;;;;6278824;28;20250;-79
2023/04/07 07:31:31;;;;;;;11.60;10.47;;;5.70;56.20;;;;;;6285198;28;20431;-81
2023/04/07 07:34:35;;;;;;;11.20;10.40;;;5.90;55.90;;;;;;6283762;28;20246;-82
2023/04/07 07:37:39;;;;;;;10.77;9.97;;;6.10;56.00;;;;;;6285026;28;20232;-76
2023/04/07 07:40:42;;;;;;;11.77;10.57;;;6.30;55.20;;;;;;6284367;28;20233;-77
2023/04/07 07:43:48;;;;;;;11.93;10.97;;;6.50;55.10;;;;;;6283843;28;20233;-78
2023/04/07 07:46:52;;;;;;;11.20;10.20;;;6.70;54.60;;;;;;6277454;28;20248;-78
2023/04/07 07:49:55;;;;;;;10.30;9.20;;;6.90;54.60;;;;;;6286230;28;20233;-77
2023/04/07 07:53:00;;;;;;;9.83;9.00;;;7.00;54.50;;;;;;6283141;28;20320;-77
2023/04/07 07:56:03;;;;;;;10.90;9.93;;;7.20;53.00;;;;;;6284974;28;20233;-78
2023/04/07 07:59:06;;;;;;;10.50;9.50;;;7.20;53.20;;;;;;6283430;28;20233;-77
2023/04/07 08:02:10;;;;;;;8.90;8.10;;;7.20;53.00;;;;;;6274700;28;20863;-78
2023/04/07 08:05:13;;;;;;;10.30;9.23;;;7.30;52.90;;;;;;6284470;28;20271;-77
2023/04/07 08:08:17;;;;;;;9.23;8.43;;;7.50;51.00;;;;;;6282555;28;20225;-79
2023/04/07 08:11:21;;;;;;;8.57;7.87;;;7.50;50.20;;;;;;6281231;28;20229;-78
2023/04/07 08:14:24;;;;;;;9.40;8.60;;;7.60;49.90;;;;;;6285931;28;20301;-77
2023/04/07 08:17:27;;;;;;;9.17;8.43;;;7.70;49.80;;;;;;6284370;28;20259;-79
2023/04/07 08:20:30;;;;;;;8.40;7.70;;;7.80;49.90;;;;;;6282996;28;20233;-76
2023/04/07 08:23:35;;;;;;;8.73;7.93;;;7.90;49.70;;;;;;6280409;28;20243;-80
2023/04/07 08:26:38;;;;;;;7.87;7.37;;;8.00;49.30;;;;;;6283832;28;20233;-79
2023/04/07 08:29:41;;;;;;;8.87;7.83;;;8.20;48.10;;;;;;6283831;28;20233;-79
2023/04/07 08:32:45;;;;;;;7.50;7.00;;;8.30;47.70;;;;;;6277691;28;20612;-79
2023/04/07 08:35:48;;;;;;;8.17;7.53;;;8.40;47.70;;;;;;6283538;28;20677;-78
2023/04/07 08:38:52;;;;;;;7.57;7.17;;;8.40;46.50;;;;;;6272677;28;20237;-78
2023/04/07 08:41:57;;;;;;;7.87;7.10;;;8.40;46.80;;;;;;6280955;28;20230;-79
2023/04/07 08:45:04;;;;;;;8.30;7.70;;;8.50;46.60;;;;;;6283335;28;20237;-79
2023/04/07 08:48:14;;;;;;;9.10;8.20;;;8.60;47.00;;;;;;6283117;28;20312;-80
2023/04/07 08:51:27;;;;;;;8.80;7.93;;;8.70;46.60;;;;;;6282678;28;20245;-79
2023/04/07 08:54:32;;;;;;;9.13;8.40;;;8.60;46.40;;;;;;6286488;28;20248;-78
2023/04/07 08:57:37;;;;;;;9.13;8.33;;;8.60;46.40;;;;;;6287445;28;20230;-77
2023/04/07 09:00:41;;;;;;;8.57;7.77;;;8.60;46.30;;;;;;6285968;28;20229;-78
2023/04/07 09:03:45;;;;;;;8.40;7.70;;;8.50;46.00;;;;;;6287619;28;20706;-78
2023/04/07 09:06:49;;;;;;;7.73;7.17;;;8.40;46.00;;;;;;6286414;28;20233;-79
2023/04/07 09:09:55;;;;;;;7.53;6.90;;;8.40;45.60;;;;;;6284849;28;20256;-77
2023/04/07 09:12:58;;;;;;;6.97;6.37;;;8.30;45.70;;;;;;6286725;28;20225;-77
2023/04/07 09:16:02;;;;;;;6.93;6.50;;;8.20;46.20;;;;;;6287452;28;20290;-77
2023/04/07 09:19:06;;;;;;;6.93;6.33;;;8.10;45.40;;;;;;6282852;28;20276;-78
2023/04/07 09:22:11;;;;;;;8.43;7.73;;;8.10;45.80;;;;;;6285491;28;20328;-78
2023/04/07 09:25:17;;;;;;;6.53;6.13;;;8.00;45.90;;;;;;6287437;28;20246;-79
2023/04/07 09:28:21;;;;;;;6.10;5.70;;;8.00;45.90;;;;;;6287152;28;20240;-77
2023/04/07 09:31:44;;;;;;;6.60;6.20;;;8.00;45.50;;;;;;6285817;28;20241;-77
2023/04/07 09:34:47;;;;;;;5.90;5.50;;;7.80;45.70;;;;;;6287459;28;20705;-78
2023/04/07 09:38:11;;;;;;;7.10;6.50;;;7.80;45.80;;;;;;6286397;28;20521;-78
2023/04/07 09:41:17;;;;;;;6.87;6.37;;;7.80;45.20;;;;;;6277732;28;20225;-77
2023/04/07 09:44:20;;;;;;;6.57;6.10;;;7.80;45.50;;;;;;6287124;28;20229;-78
2023/04/07 09:47:27;;;;;;;6.97;6.37;;;7.70;45.90;;;;;;6286885;28;20248;-79
2023/04/07 09:50:35;;;;;;;5.80;5.50;;;7.60;46.40;;;;;;6282161;28;20815;-80
2023/04/07 09:53:43;;;;;;;6.47;6.07;;;7.60;46.30;;;;;;6286747;28;20274;-80
2023/04/07 09:56:49;;;;;;;6.63;5.93;;;7.50;46.80;;;;;;6286767;28;20462;-78
2023/04/07 09:59:54;;;;;;;6.03;5.63;;;7.40;46.60;;;;;;6276312;28;20253;-78
2023/04/07 10:02:58;;;;;;;5.60;5.30;;;7.40;46.60;;;;;;6281312;28;20233;-79
2023/04/07 10:06:02;;;;;;;6.67;6.03;;;7.40;46.90;;;;;;6286553;28;20241;-78
2023/04/07 10:09:05;;;;;;;6.57;6.13;;;7.40;46.80;;;;;;6280895;28;20840;-77
2023/04/07 10:12:09;;;;;;;6.37;5.97;;;7.40;47.20;;;;;;6287088;28;20237;-78
2023/04/07 10:15:14;;;;;;;6.27;5.87;;;7.20;47.70;;;;;;6286418;28;20233;-79
2023/04/07 10:18:20;;;;;;;5.60;5.10;;;7.20;48.00;;;;;;6282537;28;20613;-76
2023/04/07 10:21:23;;;;;;;5.80;5.30;;;7.10;48.60;;;;;;6286272;28;20736;-77
2023/04/07 10:24:38;;;;;;;6.33;5.73;;;7.00;49.00;;;;;;6285315;28;20605;-79
2023/04/07 10:27:49;;;;;;;5.93;5.40;;;7.10;49.10;;;;;;6281673;28;20339;-79
2023/04/07 10:30:53;;;;;;;5.67;5.27;;;7.10;49.20;;;;;;6286474;28;20322;-79
2023/04/07 10:33:56;;;;;;;5.97;5.57;;;7.20;49.30;;;;;;6286595;28;20335;-79
2023/04/07 10:37:12;;;;;;;5.87;5.53;;;7.20;49.50;;;;;;6283311;28;20229;-79
2023/04/07 10:40:28;;;;;;;5.90;5.50;;;7.40;49.40;;;;;;6286419;28;20545;-79
2023/04/07 10:43:43;;;;;;;6.60;5.70;;;7.50;49.50;;;;;;6286022;28;20317;-77
2023/04/07 10:47:05;;;;;;;5.90;5.40;;;7.50;49.70;;;;;;6273820;28;20288;-77
2023/04/07 10:50:19;;;;;;;6.27;5.97;;;7.60;50.10;;;;;;6280198;28;20233;-79
2023/04/07 10:53:23;;;;;;;5.80;5.47;;;7.60;50.70;;;;;;6278111;28;20241;-80
2023/04/07 10:56:26;;;;;;;5.80;5.50;;;7.70;50.90;;;;;;6285433;28;20300;-79
2023/04/07 10:59:32;;;;;;;6.30;5.97;;;7.80;51.50;;;;;;6286256;28;20225;-80
2023/04/07 11:02:35;;;;;;;5.87;5.57;;;7.70;53.40;;;;;;6303303;28;20252;-77
2023/04/07 11:05:39;;;;;;;7.03;6.43;;;7.70;54.50;;;;;;6315746;28;20274;-75
2023/04/07 11:08:43;;;;;;;6.87;6.27;;;7.80;55.00;;;;;;6316810;27;20245;-74
2023/04/07 11:11:52;;;;;;;7.97;6.87;;;7.60;55.70;;;;;;6315457;28;20225;-75
2023/04/07 11:14:58;;;;;;;7.10;6.70;;;7.70;56.80;;;;;;6313105;28;20221;-76
2023/04/07 11:18:13;;;;;;;6.67;6.37;;;7.80;59.20;;;;;;6315234;28;20297;-76
2023/04/07 11:21:18;;;;;;;8.67;7.97;;;8.00;59.20;;;;;;6295374;28;20764;-78
2023/04/07 11:24:36;;;;;;;8.70;8.10;;;8.00;59.60;;;;;;6294208;28;20652;-77
2023/04/07 11:27:39;;;;;;;9.80;9.10;;;7.90;60.00;;;;;;6285835;28;20234;-80
2023/04/07 11:30:50;;;;;;;10.87;10.07;;;7.80;61.30;;;;;;6283190;28;22552;-78
2023/04/07 11:33:55;;;;;;;10.87;9.90;;;7.90;61.40;;;;;;6284290;28;20240;-78
2023/04/07 11:37:18;;;;;;;13.37;12.17;;;8.00;62.00;;;;;;6284925;28;20248;-78
2023/04/07 11:40:33;;;;;;;14.40;13.10;;;8.00;61.90;;;;;;6282365;28;20459;-79
2023/04/07 11:43:36;;;;;;;17.10;15.60;;;7.80;62.90;;;;;;6285907;28;20229;-78
2023/04/07 11:46:54;;;;;;;16.50;15.03;;;7.80;62.70;;;;;;6284994;28;20279;-77
2023/04/07 11:49:57;;;;;;;15.90;14.43;;;7.60;62.70;;;;;;6282755;28;20237;-77
2023/04/07 11:53:00;;;;;;;15.13;13.73;;;7.50;63.30;;;;;;6292688;28;20282;-76
2023/04/07 11:56:06;;;;;;;15.73;14.27;;;7.40;63.70;;;;;;6313089;28;20249;-76
2023/04/07 11:59:17;;;;;;;14.10;12.90;;;7.40;64.10;;;;;;6311276;28;20297;-76
2023/04/07 12:02:33;;;;;;;15.97;14.47;;;7.20;64.20;;;;;;6315852;28;20252;-76
2023/04/07 12:05:43;;;;;;;16.87;15.37;;;7.20;64.60;;;;;;6309741;28;20230;-77
2023/04/07 12:08:46;;;;;;;12.60;11.50;;;7.10;65.60;;;;;;6312979;28;20277;-77
2023/04/07 12:11:50;;;;;;;11.47;10.63;;;7.00;65.80;;;;;;6294638;28;20237;-80
2023/04/07 12:14:53;;;;;;;11.20;10.30;;;7.20;65.80;;;;;;6279904;28;20372;-78
2023/04/07 12:18:01;;;;;;;10.93;10.03;;;7.20;65.70;;;;;;6284122;28;20786;-79
2023/04/07 12:21:05;;;;;;;9.93;9.33;;;7.20;65.70;;;;;;6279772;28;20238;-80
2023/04/07 12:24:08;;;;;;;10.43;9.53;;;7.20;65.80;;;;;;6276106;28;20321;-75
2023/04/07 12:27:11;;;;;;;10.60;9.70;;;7.20;66.00;;;;;;6285218;28;20235;-76
2023/04/07 12:30:14;;;;;;;10.10;9.40;;;7.00;66.30;;;;;;6290951;28;20348;-78
2023/04/07 12:33:19;;;;;;;9.40;8.60;;;7.00;66.40;;;;;;6287780;28;20221;-76
2023/04/07 12:36:22;;;;;;;10.50;9.70;;;6.90;66.60;;;;;;6287635;28;20332;-80
2023/04/07 12:39:26;;;;;;;10.40;9.40;;;6.80;67.20;;;;;;6289569;28;20724;-80
2023/04/07 12:42:29;;;;;;;9.50;8.70;;;6.90;67.40;;;;;;6279403;28;20244;-76
2023/04/07 12:45:33;;;;;;;9.93;9.13;;;6.90;67.30;;;;;;6289610;28;20233;-79
2023/04/07 12:48:37;;;;;;;10.50;9.73;;;6.90;67.80;;;;;;6289381;28;20251;-81
2023/04/07 12:51:40;;;;;;;10.50;9.50;;;6.90;67.60;;;;;;6288232;28;20257;-78
2023/04/07 12:54:44;;;;;;;9.33;8.53;;;7.00;67.40;;;;;;6289232;28;20371;-77
2023/04/07 12:57:47;;;;;;;10.33;9.23;;;7.00;67.40;;;;;;6288733;28;20439;-79
2023/04/07 13:00:51;;;;;;;9.20;8.50;;;7.20;67.70;;;;;;6284696;28;20233;-80
2023/04/07 13:03:55;;;;;;;8.00;7.40;;;7.40;67.40;;;;;;6288638;28;20744;-79
2023/04/07 13:07:01;;;;;;;8.87;8.17;;;7.40;67.20;;;;;;6284010;28;20334;-79
2023/04/07 13:10:07;;;;;;;7.47;6.97;;;7.30;67.30;;;;;;6284933;28;20912;-79
2023/04/07 13:13:10;;;;;;;6.00;5.63;;;7.30;67.10;;;;;;6288210;28;20264;-79
2023/04/07 13:16:13;;;;;;;6.37;5.87;;;7.30;67.30;;;;;;6288420;28;20243;-79
2023/04/07 13:19:17;;;;;;;5.73;5.50;;;7.50;66.80;;;;;;6285128;28;20225;-75
2023/04/07 13:22:21;;;;;;;5.43;5.13;;;7.40;66.80;;;;;;6287874;28;20659;-77
2023/04/07 13:25:26;;;;;;;5.40;5.20;;;7.40;66.70;;;;;;6288650;28;20232;-80
2023/04/07 13:28:29;;;;;;;5.07;4.87;;;7.40;65.90;;;;;;6288398;28;20363;-80
2023/04/07 13:31:32;;;;;;;5.90;5.70;;;7.20;66.30;;;;;;6287355;28;20643;-80
2023/04/07 13:34:37;;;;;;;6.07;5.77;;;7.20;66.30;;;;;;6284117;28;20245;-81
2023/04/07 13:37:40;;;;;;;6.10;5.80;;;7.20;66.40;;;;;;6288507;28;20237;-78
2023/04/07 13:40:43;;;;;;;6.00;5.60;;;7.00;66.50;;;;;;6284008;28;20234;-77
2023/04/07 13:43:46;;;;;;;6.03;5.73;;;7.00;66.80;;;;;;6287335;28;20238;-79
2023/04/07 13:46:50;;;;;;;5.90;5.60;;;6.90;66.70;;;;;;6287096;28;20245;-79
2023/04/07 13:49:58;;;;;;;5.93;5.63;;;6.90;66.90;;;;;;6282945;28;20837;-79
2023/04/07 13:53:01;;;;;;;6.90;6.40;;;6.80;67.00;;;;;;6279259;28;20244;-79
2023/04/07 13:56:07;;;;;;;6.17;5.87;;;6.80;67.20;;;;;;6285605;28;20537;-79
2023/04/07 13:59:10;;;;;;;6.30;5.90;;;6.70;67.30;;;;;;6278874;28;20238;-80
2023/04/07 14:02:13;;;;;;;6.27;5.97;;;6.70;67.60;;;;;;6280403;28;20248;-79
2023/04/07 14:05:18;;;;;;;5.93;5.63;;;6.60;67.70;;;;;;6287464;28;20322;-79
2023/04/07 14:08:22;;;;;;;6.53;6.13;;;6.60;68.00;;;;;;6285753;28;20313;-81
2023/04/07 14:11:26;;;;;;;7.47;6.93;;;6.60;68.20;;;;;;6287045;28;20697;-80
2023/04/07 14:14:29;;;;;;;6.33;6.07;;;6.60;68.20;;;;;;6286667;28;20263;-80
2023/04/07 14:17:32;;;;;;;6.30;6.00;;;6.70;68.00;;;;;;6283049;28;20237;-80
2023/04/07 14:20:37;;;;;;;6.53;6.23;;;6.70;67.80;;;;;;6286877;28;20241;-77
2023/04/07 14:23:41;;;;;;;6.37;5.97;;;6.60;68.30;;;;;;6286045;28;20229;-80
2023/04/07 14:26:45;;;;;;;6.97;6.57;;;6.50;69.00;;;;;;6280534;28;20240;-80
2023/04/07 14:29:48;;;;;;;6.37;6.07;;;6.40;69.50;;;;;;6286732;28;20275;-78
2023/04/07 14:32:52;;;;;;;6.67;6.27;;;6.30;69.90;;;;;;6285362;28;20256;-80
2023/04/07 14:35:58;;;;;;;6.50;6.10;;;6.30;70.20;;;;;;6277540;28;20279;-80
2023/04/07 14:39:01;;;;;;;7.00;6.60;;;6.30;70.40;;;;;;6282584;28;20480;-81
2023/04/07 14:42:04;;;;;;;6.87;6.33;;;6.30;70.50;;;;;;6286115;28;20261;-79
2023/04/07 14:45:08;;;;;;;6.60;6.20;;;6.30;70.60;;;;;;6285261;28;20256;-76
2023/04/07 14:48:12;;;;;;;6.20;5.90;;;6.30;70.40;;;;;;6279431;28;20312;-77
2023/04/07 14:51:17;;;;;;;6.07;5.77;;;6.20;70.90;;;;;;6285255;28;20625;-77
2023/04/07 14:54:20;;;;;;;6.70;6.30;;;6.10;70.80;;;;;;6279849;28;20225;-79
2023/04/07 14:57:23;;;;;;;6.13;5.83;;;6.00;71.00;;;;;;6286790;28;20252;-79
2023/04/07 15:00:27;;;;;;;7.03;6.53;;;6.00;71.20;;;;;;6285506;28;20229;-78
2023/04/07 15:03:30;;;;;;;6.67;6.37;;;6.00;71.10;;;;;;6280904;28;20694;-78
2023/04/07 15:06:35;;;;;;;6.77;6.27;;;6.10;71.00;;;;;;6284774;28;20237;-76
2023/04/07 15:09:38;;;;;;;7.07;6.67;;;6.00;71.50;;;;;;6283369;28;20632;-77
2023/04/07 15:12:41;;;;;;;6.30;6.00;;;6.00;71.50;;;;;;6284434;28;20244;-79
2023/04/07 15:15:44;;;;;;;6.70;6.23;;;6.00;71.70;;;;;;6286321;28;20727;-79
2023/04/07 15:18:48;;;;;;;6.50;6.10;;;6.00;72.10;;;;;;6293949;28;20312;-77
2023/04/07 15:21:52;;;;;;;6.20;5.83;;;6.00;72.50;;;;;;6284258;28;20251;-78
2023/04/07 15:24:55;;;;;;;6.43;6.13;;;5.90;72.70;;;;;;6285098;28;20319;-80
2023/04/07 15:27:59;;;;;;;6.30;6.00;;;6.00;72.60;;;;;;6284916;28;20730;-76
2023/04/07 15:31:02;;;;;;;6.23;6.00;;;5.90;72.70;;;;;;6282657;28;20246;-79
2023/04/07 15:34:05;;;;;;;6.73;6.33;;;5.90;72.80;;;;;;6283297;28;20229;-78
2023/04/07 15:37:09;;;;;;;7.13;6.63;;;5.90;72.80;;;;;;6282849;28;20379;-78
2023/04/07 15:40:12;;;;;;;6.43;6.03;;;6.00;72.80;;;;;;6280721;28;20504;-79
2023/04/07 15:43:16;;;;;;;5.93;5.63;;;5.90;73.00;;;;;;6285902;28;20237;-82
2023/04/07 15:46:19;;;;;;;7.03;6.73;;;6.00;72.90;;;;;;6286331;28;20994;-79
2023/04/07 15:49:22;;;;;;;6.60;6.30;;;5.90;73.40;;;;;;6278529;28;20519;-79
2023/04/07 15:52:30;;;;;;;7.03;6.43;;;5.80;73.40;;;;;;6284495;28;20234;-79
2023/04/07 15:55:34;;;;;;;7.17;6.47;;;5.80;73.60;;;;;;6284744;28;20233;-82
2023/04/07 15:58:37;;;;;;;6.67;6.27;;;5.90;73.70;;;;;;6280292;28;20705;-78
2023/04/07 16:01:40;;;;;;;6.50;6.20;;;5.80;73.90;;;;;;6279315;28;20234;-79
2023/04/07 16:04:46;;;;;;;6.57;6.17;;;5.80;73.90;;;;;;6288493;28;20661;-78
2023/04/07 16:07:50;;;;;;;7.00;6.40;;;5.80;73.90;;;;;;6288986;28;20236;-78